Time;durP1;ratioP1;P1;durP2;ratioP2;P2;SDS_P1;SDS_P2;PMS_P1;PMS_P2;Temp;Humidity;BMP_temperature;BMP_pressure;BME280_temperature;BME280_humidity;BME280_pressure;Samples;Min_cycle;Max_cycle;Signal;HPM_P1;HPM_P2
2023/05/19 00:00:45;;;;;;;8.27;5.67;;;;;;;;;;5033767;28;20483;-79
2023/05/19 00:03:13;;;;;;;8.70;4.60;;;;;;;;;;5029134;28;20452;-79
2023/05/19 00:05:44;;;;;;;7.43;4.33;;;;;;;;;;5030803;28;20510;-79
2023/05/19 00:08:11;;;;;;;14.33;5.77;;;;;;;;;;5025701;28;20472;-79
2023/05/19 00:10:38;;;;;;;7.50;4.63;;;;;;;;;;5029582;28;20476;-78
2023/05/19 00:13:06;;;;;;;6.87;4.07;;;;;;;;;;5027763;28;20440;-79
2023/05/19 00:15:34;;;;;;;8.93;5.20;;;;;;;;;;5034034;28;20476;-79
2023/05/19 00:18:01;;;;;;;9.80;4.30;;;;;;;;;;5033174;28;20470;-79
2023/05/19 00:20:28;;;;;;;12.83;4.47;;;;;;;;;;5027891;28;20554;-79
2023/05/19 00:22:54;;;;;;;14.73;5.00;;;;;;;;;;5027688;28;20449;-79
2023/05/19 00:25:20;;;;;;;5.93;4.40;;;;;;;;;;5027716;28;21006;-79
2023/05/19 00:27:46;;;;;;;7.87;4.10;;;;;;;;;;5026944;28;20474;-79
2023/05/19 00:30:15;;;;;;;5.97;3.90;;;;;;;;;;5019235;28;20465;-79
2023/05/19 00:32:41;;;;;;;6.10;5.10;;;;;;;;;;5035760;28;20455;-79
2023/05/19 00:35:08;;;;;;;6.57;4.40;;;;;;;;;;5028971;28;20500;-79
2023/05/19 00:37:35;;;;;;;5.53;3.43;;;;;;;;;;5021976;28;20479;-79
2023/05/19 00:40:01;;;;;;;7.30;3.93;;;;;;;;;;5011590;28;20849;-79
2023/05/19 00:42:28;;;;;;;5.23;3.80;;;;;;;;;;5033343;28;20814;-78
2023/05/19 00:44:54;;;;;;;7.30;4.90;;;;;;;;;;5030557;28;20475;-79
2023/05/19 00:47:22;;;;;;;7.53;6.17;;;;;;;;;;5007700;28;20479;-79
2023/05/19 00:49:48;;;;;;;7.40;5.57;;;;;;;;;;5029554;28;20466;-79
2023/05/19 00:52:15;;;;;;;13.33;4.80;;;;;;;;;;5012730;28;20802;-79
2023/05/19 00:54:41;;;;;;;8.30;4.47;;;;;;;;;;5030618;28;20468;-79
2023/05/19 00:57:08;;;;;;;7.50;4.77;;;;;;;;;;5025917;28;20837;-79
2023/05/19 00:59:34;;;;;;;6.10;4.97;;;;;;;;;;5030841;28;20487;-79
2023/05/19 01:02:01;;;;;;;7.17;4.70;;;;;;;;;;5031854;28;20938;-79
2023/05/19 01:04:33;;;;;;;9.07;5.00;;;;;;;;;;5022307;28;20477;-79
2023/05/19 01:07:00;;;;;;;5.47;3.73;;;;;;;;;;5024607;28;20496;-79
2023/05/19 01:09:26;;;;;;;8.20;4.63;;;;;;;;;;5030908;28;20473;-79
2023/05/19 01:11:53;;;;;;;6.80;4.20;;;;;;;;;;5027791;28;20448;-79
2023/05/19 01:14:20;;;;;;;10.67;5.30;;;;;;;;;;5030222;28;20469;-79
2023/05/19 01:16:48;;;;;;;10.47;4.70;;;;;;;;;;5029148;28;20485;-79
2023/05/19 01:19:21;;;;;;;6.47;4.57;;;;;;;;;;5030090;28;20460;-79
2023/05/19 01:22:06;;;;;;;5.90;5.30;;;;;;;;;;5024680;28;20453;-79
2023/05/19 01:25:05;;;;;;;7.40;4.97;;;;;;;;;;5022170;28;20535;-79
2023/05/19 01:27:47;;;;;;;12.33;5.20;;;;;;;;;;5018276;28;20465;-79
2023/05/19 01:30:31;;;;;;;7.50;4.77;;;;;;;;;;5021069;28;20519;-79
2023/05/19 01:33:00;;;;;;;10.13;4.73;;;;;;;;;;5028605;28;20445;-79
2023/05/19 01:35:29;;;;;;;5.37;4.80;;;;;;;;;;5029289;28;20488;-79
2023/05/19 01:37:56;;;;;;;7.23;6.50;;;;;;;;;;5033185;28;20464;-79
2023/05/19 01:40:24;;;;;;;7.70;5.33;;;;;;;;;;5031989;28;21029;-79
2023/05/19 01:42:52;;;;;;;7.03;4.60;;;;;;;;;;5029840;28;20939;-79
2023/05/19 01:45:20;;;;;;;5.40;4.60;;;;;;;;;;5029677;28;20835;-78
2023/05/19 01:47:48;;;;;;;6.13;4.30;;;;;;;;;;5025859;28;20469;-79
2023/05/19 01:50:16;;;;;;;8.27;3.97;;;;;;;;;;5025240;28;20477;-79
2023/05/19 01:52:42;;;;;;;5.00;4.50;;;;;;;;;;5023829;28;20931;-79
2023/05/19 01:55:10;;;;;;;6.17;4.70;;;;;;;;;;5032595;28;20855;-79
2023/05/19 01:57:43;;;;;;;6.50;4.80;;;;;;;;;;5031101;28;20473;-79
2023/05/19 02:00:11;;;;;;;8.23;3.73;;;;;;;;;;5032060;28;20473;-79
2023/05/19 02:02:42;;;;;;;7.40;5.20;;;;;;;;;;5014992;28;20797;-79
2023/05/19 02:05:13;;;;;;;9.43;4.73;;;;;;;;;;5022528;28;20480;-78
2023/05/19 02:07:44;;;;;;;5.40;4.40;;;;;;;;;;5027177;28;20474;-79
2023/05/19 02:10:11;;;;;;;5.63;4.23;;;;;;;;;;5030821;28;20476;-79
2023/05/19 02:12:39;;;;;;;6.00;3.87;;;;;;;;;;5031046;28;20445;-78
2023/05/19 02:15:07;;;;;;;6.00;4.90;;;;;;;;;;5020631;28;20468;-79
2023/05/19 02:17:36;;;;;;;4.00;3.70;;;;;;;;;;5032836;28;20838;-78
2023/05/19 02:20:03;;;;;;;9.57;5.13;;;;;;;;;;5002423;28;20584;-79
2023/05/19 02:22:29;;;;;;;6.20;3.90;;;;;;;;;;5027993;28;20452;-78
2023/05/19 02:24:57;;;;;;;7.50;4.60;;;;;;;;;;5028533;28;20480;-78
2023/05/19 02:27:25;;;;;;;5.40;4.03;;;;;;;;;;5012790;28;20466;-79
2023/05/19 02:29:52;;;;;;;4.60;3.83;;;;;;;;;;5013730;28;20468;-78
2023/05/19 02:32:18;;;;;;;9.63;4.50;;;;;;;;;;5024342;28;20444;-79
2023/05/19 02:34:45;;;;;;;9.83;5.03;;;;;;;;;;5027550;28;20832;-78
2023/05/19 02:37:12;;;;;;;6.33;4.33;;;;;;;;;;5026660;28;20488;-79
2023/05/19 02:39:39;;;;;;;8.17;4.87;;;;;;;;;;5025733;28;20460;-78
2023/05/19 02:42:06;;;;;;;5.93;4.27;;;;;;;;;;5028509;28;20452;-78
2023/05/19 02:44:34;;;;;;;8.87;5.07;;;;;;;;;;5029275;28;20523;-78
2023/05/19 02:47:00;;;;;;;7.00;5.70;;;;;;;;;;5027682;28;20491;-79
2023/05/19 02:49:29;;;;;;;7.07;4.47;;;;;;;;;;5031206;28;20849;-79
2023/05/19 02:51:55;;;;;;;6.60;4.17;;;;;;;;;;5021734;28;20824;-79
2023/05/19 02:54:22;;;;;;;6.90;4.63;;;;;;;;;;5021654;28;20470;-78
2023/05/19 02:56:48;;;;;;;5.30;4.70;;;;;;;;;;5026754;28;20488;-78
2023/05/19 02:59:16;;;;;;;6.93;4.70;;;;;;;;;;5024839;28;20473;-78
2023/05/19 03:01:42;;;;;;;7.83;4.97;;;;;;;;;;5032109;28;20445;-79
2023/05/19 03:04:09;;;;;;;5.00;4.47;;;;;;;;;;5030683;28;21049;-79
2023/05/19 03:06:35;;;;;;;9.40;4.30;;;;;;;;;;5036455;28;20475;-79
2023/05/19 03:09:02;;;;;;;5.90;4.47;;;;;;;;;;5035079;28;20457;-78
2023/05/19 03:11:29;;;;;;;6.63;5.43;;;;;;;;;;5027870;28;20939;-78
2023/05/19 03:13:56;;;;;;;6.33;4.67;;;;;;;;;;5009232;28;20446;-78
2023/05/19 03:16:24;;;;;;;6.00;4.80;;;;;;;;;;5032050;28;20483;-79
2023/05/19 03:18:51;;;;;;;8.43;4.70;;;;;;;;;;5034786;28;20471;-78
2023/05/19 03:21:17;;;;;;;6.10;5.47;;;;;;;;;;5010755;28;20946;-78
2023/05/19 03:23:43;;;;;;;8.80;4.07;;;;;;;;;;5039946;28;20455;-79
2023/05/19 03:26:10;;;;;;;9.77;5.70;;;;;;;;;;5032155;28;20452;-78
2023/05/19 03:28:36;;;;;;;6.87;4.60;;;;;;;;;;5023681;28;20885;-79
2023/05/19 03:31:03;;;;;;;7.73;5.00;;;;;;;;;;5029663;28;20496;-78
2023/05/19 03:33:31;;;;;;;4.90;4.40;;;;;;;;;;5029039;28;20937;-78
2023/05/19 03:35:57;;;;;;;6.90;4.83;;;;;;;;;;5032047;28;20500;-79
2023/05/19 03:38:24;;;;;;;7.13;5.47;;;;;;;;;;5035654;28;20842;-78
2023/05/19 03:40:50;;;;;;;10.20;5.80;;;;;;;;;;5021645;28;20480;-79
2023/05/19 03:43:18;;;;;;;9.73;6.27;;;;;;;;;;5033201;28;20463;-79
2023/05/19 03:45:44;;;;;;;8.60;4.93;;;;;;;;;;5013719;28;20473;-78
2023/05/19 03:48:11;;;;;;;8.10;5.67;;;;;;;;;;5022901;28;20465;-79
2023/05/19 03:50:39;;;;;;;8.33;4.90;;;;;;;;;;5034973;28;20473;-78
2023/05/19 03:53:05;;;;;;;7.30;4.90;;;;;;;;;;5031127;28;20475;-78
2023/05/19 03:55:32;;;;;;;9.50;4.93;;;;;;;;;;5031593;28;20907;-78
2023/05/19 03:57:58;;;;;;;9.00;4.90;;;;;;;;;;5029889;28;20846;-79
2023/05/19 04:00:25;;;;;;;10.10;5.20;;;;;;;;;;5030704;28;20476;-78
2023/05/19 04:02:52;;;;;;;5.83;5.10;;;;;;;;;;5030649;28;20456;-78
2023/05/19 04:05:18;;;;;;;5.93;5.17;;;;;;;;;;5009206;28;20487;-78
2023/05/19 04:07:46;;;;;;;9.90;5.23;;;;;;;;;;5033541;28;20480;-78
2023/05/19 04:10:14;;;;;;;8.63;6.03;;;;;;;;;;5030754;28;20471;-79
2023/05/19 04:12:41;;;;;;;6.77;5.47;;;;;;;;;;5029934;28;20445;-78
2023/05/19 04:15:10;;;;;;;8.97;5.43;;;;;;;;;;5028516;28;20502;-78
2023/05/19 04:17:36;;;;;;;11.47;5.13;;;;;;;;;;5030742;28;20615;-78
2023/05/19 04:20:05;;;;;;;9.37;5.60;;;;;;;;;;5033876;28;20468;-79
2023/05/19 04:22:31;;;;;;;13.90;5.40;;;;;;;;;;5028354;28;20453;-79
2023/05/19 04:24:59;;;;;;;9.83;5.60;;;;;;;;;;5030869;28;20475;-78
2023/05/19 04:27:26;;;;;;;12.87;5.50;;;;;;;;;;5022520;28;20476;-79
2023/05/19 04:29:53;;;;;;;7.37;5.80;;;;;;;;;;5027903;28;20523;-78
2023/05/19 04:32:19;;;;;;;6.77;5.97;;;;;;;;;;5005683;28;20449;-79
2023/05/19 04:34:46;;;;;;;6.90;6.10;;;;;;;;;;5031998;28;20481;-79
2023/05/19 04:37:12;;;;;;;7.90;5.93;;;;;;;;;;5032483;28;20493;-79
2023/05/19 04:39:41;;;;;;;8.93;5.97;;;;;;;;;;5022776;28;20476;-78
2023/05/19 04:42:10;;;;;;;6.80;5.40;;;;;;;;;;5027750;28;20453;-79
2023/05/19 04:44:38;;;;;;;14.83;6.20;;;;;;;;;;5032683;28;20469;-78
2023/05/19 04:47:05;;;;;;;10.67;6.83;;;;;;;;;;5033589;28;20890;-79
2023/05/19 04:49:32;;;;;;;7.17;6.30;;;;;;;;;;5021654;28;20888;-79
2023/05/19 04:51:58;;;;;;;15.20;7.37;;;;;;;;;;5028950;28;20845;-78
2023/05/19 04:54:25;;;;;;;6.10;5.43;;;;;;;;;;5032175;28;20991;-78
2023/05/19 04:56:51;;;;;;;8.40;6.13;;;;;;;;;;5033777;28;20487;-78
2023/05/19 04:59:19;;;;;;;8.83;5.77;;;;;;;;;;5030722;28;20476;-78
2023/05/19 05:01:45;;;;;;;9.23;5.90;;;;;;;;;;5036626;28;20919;-78
2023/05/19 05:04:12;;;;;;;8.07;5.53;;;;;;;;;;5033809;28;20470;-78
2023/05/19 05:06:39;;;;;;;7.20;6.03;;;;;;;;;;5033522;28;20440;-78
2023/05/19 05:09:05;;;;;;;11.83;5.40;;;;;;;;;;5033527;28;20469;-78
2023/05/19 05:11:32;;;;;;;9.30;6.33;;;;;;;;;;5029687;28;20449;-78
2023/05/19 05:13:59;;;;;;;10.60;5.97;;;;;;;;;;5013969;28;20473;-79
2023/05/19 05:16:27;;;;;;;7.60;5.97;;;;;;;;;;5032775;28;20476;-78
2023/05/19 05:18:54;;;;;;;8.50;6.33;;;;;;;;;;5031185;28;20994;-78
2023/05/19 05:21:21;;;;;;;10.10;6.37;;;;;;;;;;5031516;28;20445;-79
2023/05/19 05:23:48;;;;;;;7.00;6.40;;;;;;;;;;5023155;28;20484;-78
2023/05/19 05:26:17;;;;;;;10.30;7.20;;;;;;;;;;5030108;28;20454;-78
2023/05/19 05:28:43;;;;;;;10.63;6.90;;;;;;;;;;5031015;28;20464;-79
2023/05/19 05:31:10;;;;;;;12.57;6.37;;;;;;;;;;5025948;28;20449;-78
2023/05/19 05:33:38;;;;;;;14.73;6.87;;;;;;;;;;5029953;28;20497;-78
2023/05/19 05:36:04;;;;;;;17.60;7.13;;;;;;;;;;5024883;28;20468;-78
2023/05/19 05:38:31;;;;;;;10.90;6.10;;;;;;;;;;5032085;28;20475;-78
2023/05/19 05:40:57;;;;;;;14.00;8.17;;;;;;;;;;5032108;28;20473;-78
2023/05/19 05:43:23;;;;;;;12.47;7.83;;;;;;;;;;5029185;28;20826;-78
2023/05/19 05:45:50;;;;;;;15.10;7.67;;;;;;;;;;5025888;28;20484;-78
2023/05/19 05:48:16;;;;;;;13.60;7.37;;;;;;;;;;5029123;28;20461;-78
2023/05/19 05:50:48;;;;;;;17.83;7.10;;;;;;;;;;5027106;28;20477;-78
2023/05/19 05:53:18;;;;;;;15.03;8.87;;;;;;;;;;5004839;28;20441;-77
2023/05/19 05:55:45;;;;;;;11.03;7.00;;;;;;;;;;5027247;28;21040;-78
2023/05/19 05:58:13;;;;;;;14.10;8.50;;;;;;;;;;5032809;28;20491;-78
2023/05/19 06:00:42;;;;;;;14.57;7.27;;;;;;;;;;5029809;28;20499;-78
2023/05/19 06:03:08;;;;;;;16.30;9.23;;;;;;;;;;5018234;28;20571;-79
2023/05/19 06:05:35;;;;;;;13.20;7.40;;;;;;;;;;5020227;28;20485;-77
2023/05/19 06:08:03;;;;;;;11.40;7.53;;;;;;;;;;5028153;28;20990;-79
2023/05/19 06:10:29;;;;;;;10.80;7.50;;;;;;;;;;5023771;28;20468;-79
2023/05/19 06:12:56;;;;;;;12.83;8.00;;;;;;;;;;5032644;28;20453;-77
2023/05/19 06:15:22;;;;;;;15.00;7.60;;;;;;;;;;5028100;28;20479;-78
2023/05/19 06:17:49;;;;;;;14.00;7.90;;;;;;;;;;5029074;28;20499;-78
2023/05/19 06:20:15;;;;;;;11.60;6.33;;;;;;;;;;5026766;28;20476;-78
2023/05/19 06:22:41;;;;;;;13.17;7.50;;;;;;;;;;5030417;28;20452;-78
2023/05/19 06:25:09;;;;;;;10.93;6.80;;;;;;;;;;5029932;28;21024;-78
2023/05/19 06:27:36;;;;;;;10.60;6.17;;;;;;;;;;5028264;28;20972;-78
2023/05/19 06:30:03;;;;;;;10.40;6.47;;;;;;;;;;5025821;28;20505;-77
2023/05/19 06:32:29;;;;;;;20.83;7.30;;;;;;;;;;5030779;28;20463;-77
2023/05/19 06:34:55;;;;;;;12.70;6.30;;;;;;;;;;5028973;28;20998;-79
2023/05/19 06:37:22;;;;;;;14.73;6.20;;;;;;;;;;5027924;28;21007;-79
2023/05/19 06:39:51;;;;;;;12.77;5.70;;;;;;;;;;5034467;28;20473;-79
2023/05/19 06:42:21;;;;;;;8.63;5.80;;;;;;;;;;5033916;28;20992;-78
2023/05/19 06:44:49;;;;;;;9.23;5.73;;;;;;;;;;5032437;28;20468;-78
2023/05/19 06:47:15;;;;;;;12.27;7.30;;;;;;;;;;5032669;28;20935;-79
2023/05/19 06:49:42;;;;;;;9.27;5.33;;;;;;;;;;5034859;28;20464;-79
2023/05/19 06:52:10;;;;;;;8.30;5.10;;;;;;;;;;5030257;28;21021;-80
2023/05/19 06:54:36;;;;;;;10.30;5.67;;;;;;;;;;5013059;28;20466;-78
2023/05/19 06:57:03;;;;;;;14.83;5.57;;;;;;;;;;5034238;28;20488;-78
2023/05/19 06:59:31;;;;;;;9.23;4.87;;;;;;;;;;5029056;28;21072;-78
2023/05/19 07:01:57;;;;;;;7.77;5.13;;;;;;;;;;5034443;28;20831;-78
2023/05/19 07:04:24;;;;;;;10.47;5.00;;;;;;;;;;5031275;28;20849;-78
2023/05/19 07:06:50;;;;;;;9.80;5.00;;;;;;;;;;5027778;28;20476;-78
2023/05/19 07:09:17;;;;;;;8.33;4.40;;;;;;;;;;5029501;28;21019;-78
2023/05/19 07:11:43;;;;;;;9.03;5.50;;;;;;;;;;5027953;28;20511;-78
2023/05/19 07:14:09;;;;;;;10.40;5.10;;;;;;;;;;5029762;28;20464;-78
2023/05/19 07:16:37;;;;;;;7.47;5.10;;;;;;;;;;5034374;28;20435;-78
2023/05/19 07:19:03;;;;;;;12.30;4.80;;;;;;;;;;5031266;28;20962;-78
2023/05/19 07:21:30;;;;;;;9.80;4.40;;;;;;;;;;5027883;28;20463;-78
2023/05/19 07:23:56;;;;;;;9.27;4.63;;;;;;;;;;5013314;28;20511;-78
2023/05/19 07:26:22;;;;;;;16.00;4.90;;;;;;;;;;5033202;28;20444;-78
2023/05/19 07:28:49;;;;;;;10.60;5.33;;;;;;;;;;5031509;28;20464;-78
2023/05/19 07:31:15;;;;;;;8.20;4.87;;;;;;;;;;5029653;28;20440;-78
2023/05/19 07:33:43;;;;;;;6.60;3.63;;;;;;;;;;5030779;28;20808;-78
2023/05/19 07:36:09;;;;;;;8.00;3.90;;;;;;;;;;5033380;28;20442;-78
2023/05/19 07:38:35;;;;;;;14.37;4.83;;;;;;;;;;5012870;28;20455;-78
2023/05/19 07:41:03;;;;;;;4.27;3.40;;;;;;;;;;5031103;28;20977;-78
2023/05/19 07:43:30;;;;;;;7.70;4.53;;;;;;;;;;5034786;28;20901;-78
2023/05/19 07:45:56;;;;;;;4.33;3.93;;;;;;;;;;5029671;28;20479;-78
2023/05/19 07:48:24;;;;;;;9.50;5.07;;;;;;;;;;5025302;28;20846;-78
2023/05/19 07:50:52;;;;;;;7.57;3.20;;;;;;;;;;5024625;28;20443;-79
2023/05/19 07:53:19;;;;;;;16.73;3.83;;;;;;;;;;5031739;28;20836;-78
2023/05/19 07:55:45;;;;;;;4.43;3.73;;;;;;;;;;5033768;28;20446;-78
2023/05/19 07:58:12;;;;;;;6.90;4.30;;;;;;;;;;5032552;28;20863;-78
2023/05/19 08:00:39;;;;;;;12.63;3.57;;;;;;;;;;5034557;28;20468;-79
2023/05/19 08:03:06;;;;;;;7.43;4.00;;;;;;;;;;5032798;28;20921;-78
2023/05/19 08:05:34;;;;;;;5.23;3.80;;;;;;;;;;5028715;28;20497;-78
2023/05/19 08:08:02;;;;;;;10.20;3.90;;;;;;;;;;5030305;28;20487;-78
2023/05/19 08:10:28;;;;;;;9.57;4.30;;;;;;;;;;5026675;28;20474;-78
2023/05/19 08:12:55;;;;;;;13.03;3.80;;;;;;;;;;5012205;28;20929;-78
2023/05/19 08:15:21;;;;;;;12.30;4.70;;;;;;;;;;5030037;28;20473;-78
2023/05/19 08:17:47;;;;;;;5.57;3.60;;;;;;;;;;5028035;28;20536;-79
2023/05/19 08:20:13;;;;;;;6.43;3.37;;;;;;;;;;5030533;28;21025;-78
2023/05/19 08:22:40;;;;;;;7.40;3.60;;;;;;;;;;5022987;28;20454;-78
2023/05/19 08:25:08;;;;;;;11.23;4.07;;;;;;;;;;5032188;28;20469;-78
2023/05/19 08:27:35;;;;;;;10.00;4.00;;;;;;;;;;5026904;28;20462;-78
2023/05/19 08:30:01;;;;;;;5.63;3.57;;;;;;;;;;5033262;28;20846;-79
2023/05/19 08:32:27;;;;;;;7.43;4.27;;;;;;;;;;5031156;28;20456;-78
2023/05/19 08:34:54;;;;;;;6.70;3.80;;;;;;;;;;5032212;28;20468;-79
2023/05/19 08:37:20;;;;;;;9.90;4.83;;;;;;;;;;5031319;28;20566;-79
2023/05/19 08:39:47;;;;;;;7.77;3.50;;;;;;;;;;5011296;28;20472;-78
2023/05/19 08:42:15;;;;;;;10.83;3.93;;;;;;;;;;5030442;28;20971;-78
2023/05/19 08:44:42;;;;;;;5.97;3.40;;;;;;;;;;5014467;28;20470;-79
2023/05/19 08:47:12;;;;;;;5.47;2.60;;;;;;;;;;5031221;28;20478;-78
2023/05/19 08:49:43;;;;;;;7.07;3.20;;;;;;;;;;5014571;28;20990;-78
2023/05/19 08:52:14;;;;;;;6.67;3.37;;;;;;;;;;5024256;28;20446;-78
2023/05/19 08:54:43;;;;;;;8.10;3.47;;;;;;;;;;5030828;28;20472;-79
2023/05/19 08:57:10;;;;;;;16.30;3.77;;;;;;;;;;5025160;28;20469;-78
2023/05/19 08:59:39;;;;;;;7.57;3.40;;;;;;;;;;5030085;28;20468;-79
2023/05/19 09:02:06;;;;;;;11.80;3.33;;;;;;;;;;5014663;28;20454;-79
2023/05/19 09:04:32;;;;;;;8.90;3.23;;;;;;;;;;5028052;28;20469;-79
2023/05/19 09:07:01;;;;;;;6.53;3.30;;;;;;;;;;5029837;28;20479;-79
2023/05/19 09:09:27;;;;;;;7.13;3.50;;;;;;;;;;5028546;28;20469;-79
2023/05/19 09:11:54;;;;;;;9.97;3.87;;;;;;;;;;5030912;28;20440;-79
2023/05/19 09:14:21;;;;;;;8.90;3.40;;;;;;;;;;5028897;28;20477;-79
2023/05/19 09:16:51;;;;;;;5.57;3.80;;;;;;;;;;5024952;28;20469;-79
2023/05/19 09:19:19;;;;;;;6.77;3.20;;;;;;;;;;5027455;28;20480;-78
2023/05/19 09:21:45;;;;;;;8.97;3.60;;;;;;;;;;5028509;28;20441;-79
2023/05/19 09:24:12;;;;;;;4.17;2.80;;;;;;;;;;5020017;28;20465;-79
2023/05/19 09:26:39;;;;;;;9.80;4.53;;;;;;;;;;5031474;28;20444;-79
2023/05/19 09:29:13;;;;;;;6.60;3.70;;;;;;;;;;5028259;28;20469;-79
2023/05/19 09:31:40;;;;;;;3.43;3.13;;;;;;;;;;5030196;28;20445;-78
2023/05/19 09:34:13;;;;;;;8.10;2.97;;;;;;;;;;5024983;28;20469;-79
2023/05/19 09:36:39;;;;;;;6.77;3.10;;;;;;;;;;5025733;28;20448;-79
2023/05/19 09:39:13;;;;;;;4.90;2.60;;;;;;;;;;5022768;28;20465;-79
2023/05/19 09:41:39;;;;;;;4.20;3.40;;;;;;;;;;5008106;28;20446;-78
2023/05/19 09:44:07;;;;;;;8.13;2.90;;;;;;;;;;5033005;28;20522;-79
2023/05/19 09:46:35;;;;;;;7.20;3.13;;;;;;;;;;5019700;28;20605;-79
2023/05/19 09:49:08;;;;;;;7.57;3.40;;;;;;;;;;5012656;28;20947;-79
2023/05/19 09:51:36;;;;;;;8.03;3.03;;;;;;;;;;5032972;28;20441;-79
2023/05/19 09:54:03;;;;;;;7.27;3.37;;;;;;;;;;5031400;28;20480;-79
2023/05/19 09:56:31;;;;;;;6.73;3.13;;;;;;;;;;5029314;28;20461;-78
2023/05/19 09:58:58;;;;;;;6.37;3.33;;;;;;;;;;5032592;28;20486;-79
2023/05/19 10:01:25;;;;;;;7.80;3.10;;;;;;;;;;5028112;28;20457;-78
2023/05/19 10:03:52;;;;;;;2.83;2.27;;;;;;;;;;5024599;28;20817;-78
2023/05/19 10:06:19;;;;;;;3.60;2.87;;;;;;;;;;5028107;28;20449;-79
2023/05/19 10:08:49;;;;;;;7.80;3.57;;;;;;;;;;5007589;28;20860;-78
2023/05/19 10:11:16;;;;;;;6.00;3.03;;;;;;;;;;5030630;28;20464;-78
2023/05/19 10:13:42;;;;;;;3.30;3.00;;;;;;;;;;5025123;28;20447;-79
2023/05/19 10:16:09;;;;;;;6.17;3.47;;;;;;;;;;5026945;28;20441;-79
2023/05/19 10:18:36;;;;;;;10.33;3.07;;;;;;;;;;5027186;28;20480;-79
2023/05/19 10:21:02;;;;;;;8.37;2.87;;;;;;;;;;5029492;28;20998;-79
2023/05/19 10:23:29;;;;;;;5.83;2.63;;;;;;;;;;5032793;28;20453;-79
2023/05/19 10:25:58;;;;;;;4.67;2.13;;;;;;;;;;5012247;28;20461;-79
2023/05/19 10:28:26;;;;;;;3.63;2.20;;;;;;;;;;5030698;28;20477;-79
2023/05/19 10:30:54;;;;;;;5.93;2.30;;;;;;;;;;5027878;28;20468;-79
2023/05/19 10:33:22;;;;;;;2.40;2.10;;;;;;;;;;5021983;28;20451;-78
2023/05/19 10:36:07;;;;;;;8.67;2.70;;;;;;;;;;5025804;28;20465;-79
2023/05/19 10:38:39;;;;;;;7.67;2.50;;;;;;;;;;5028029;28;20543;-79
2023/05/19 10:41:10;;;;;;;6.20;2.47;;;;;;;;;;5024301;28;20542;-79
2023/05/19 10:43:41;;;;;;;5.07;2.20;;;;;;;;;;5031695;28;20480;-78
2023/05/19 10:46:07;;;;;;;3.53;2.40;;;;;;;;;;5032520;28;20448;-79
2023/05/19 10:48:34;;;;;;;5.27;2.23;;;;;;;;;;5031223;28;20469;-79
2023/05/19 10:51:01;;;;;;;4.10;2.17;;;;;;;;;;5023223;28;20468;-79
2023/05/19 10:53:27;;;;;;;;;;;;;;;;;;5031220;28;20655;-79
2023/05/19 10:55:54;;;;;;;;;;;;;;;;;;5032266;28;19931;-79
2023/05/19 10:58:20;;;;;;;;;;;;;;;;;;5019575;28;19921;-79
2023/05/19 11:00:47;;;;;;;;;;;;;;;;;;5022461;28;19928;-79
2023/05/19 11:03:13;;;;;;;;;;;;;;;;;;5031221;28;19921;-79
2023/05/19 11:05:39;;;;;;;;;;;;;;;;;;5028298;28;20342;-79
2023/05/19 11:08:06;;;;;;;;;;;;;;;;;;5031201;28;19921;-79
2023/05/19 11:10:32;;;;;;;;;;;;;;;;;;5025290;28;19921;-80
2023/05/19 11:12:59;;;;;;;;;;;;;;;;;;5021093;28;19929;-78
2023/05/19 11:15:25;;;;;;;;;;;;;;;;;;5024823;28;19921;-79
2023/05/19 11:17:51;;;;;;;;;;;;;;;;;;5032921;28;19944;-79
2023/05/19 11:20:17;;;;;;;;;;;;;;;;;;5026235;28;19921;-79
2023/05/19 11:22:43;;;;;;;;;;;;;;;;;;5026469;28;19922;-79
2023/05/19 11:25:09;;;;;;;;;;;;;;;;;;5029393;28;19944;-78
2023/05/19 11:27:38;;;;;;;;;;;;;;;;;;5033857;28;19949;-79
2023/05/19 11:30:05;;;;;;;;;;;;;;;;;;5035174;28;20418;-78
2023/05/19 11:32:32;;;;;;;;;;;;;;;;;;5036267;28;19921;-79
2023/05/19 11:34:58;;;;;;;;;;;;;;;;;;5035440;28;19936;-79
2023/05/19 11:37:24;;;;;;;;;;;;;;;;;;5029927;28;19921;-79
2023/05/19 11:39:51;;;;;;;;;;;;;;;;;;5030804;28;19925;-79
2023/05/19 11:42:17;;;;;;;;;;;;;;;;;;5019227;28;19925;-79
2023/05/19 11:44:45;;;;;;;;;;;;;;;;;;5030052;28;19928;-79
2023/05/19 11:47:11;;;;;;;;;;;;;;;;;;5033060;28;20303;-79
2023/05/19 11:49:37;;;;;;;;;;;;;;;;;;5033894;28;19921;-79
2023/05/19 11:52:03;;;;;;;;;;;;;;;;;;5013071;28;19932;-79
2023/05/19 11:54:30;;;;;;;;;;;;;;;;;;5035767;28;19921;-79
2023/05/19 11:56:56;;;;;;;;;;;;;;;;;;5033540;28;19921;-78
2023/05/19 11:59:22;;;;;;;;;;;;;;;;;;5033041;28;19928;-78
2023/05/19 12:01:48;;;;;;;;;;;;;;;;;;5030584;28;19928;-79
2023/05/19 12:04:15;;;;;;;;;;;;;;;;;;5033987;28;19921;-79
2023/05/19 12:06:41;;;;;;;;;;;;;;;;;;5033827;28;20355;-79
2023/05/19 12:09:09;;;;;;;;;;;;;;;;;;5034926;28;19928;-79
2023/05/19 12:11:35;;;;;;;;;;;;;;;;;;5035749;28;19927;-79
2023/05/19 12:14:02;;;;;;;;;;;;;;;;;;5034378;28;19925;-79
2023/05/19 12:16:28;;;;;;;;;;;;;;;;;;5027570;28;19968;-79
2023/05/19 12:18:54;;;;;;;;;;;;;;;;;;5030590;28;20375;-79
2023/05/19 12:21:20;;;;;;;;;;;;;;;;;;5034655;28;19933;-79
2023/05/19 12:23:46;;;;;;;;;;;;;;;;;;5031602;28;19932;-79
2023/05/19 12:26:12;;;;;;;;;;;;;;;;;;5032471;28;19921;-79
2023/05/19 12:28:39;;;;;;;;;;;;;;;;;;5030965;28;19952;-80
2023/05/19 12:31:05;;;;;;;;;;;;;;;;;;5030171;28;19921;-79
2023/05/19 12:33:31;;;;;;;;;;;;;;;;;;5024770;28;19929;-79
2023/05/19 12:35:57;;;;;;;;;;;;;;;;;;5027653;28;19924;-78
2023/05/19 12:38:23;;;;;;;;;;;;;;;;;;5035226;28;19921;-79
2023/05/19 12:40:49;;;;;;;;;;;;;;;;;;5025819;28;19922;-79
2023/05/19 12:43:16;;;;;;;;;;;;;;;;;;5030836;28;20406;-79
2023/05/19 12:45:42;;;;;;;;;;;;;;;;;;5031694;28;19921;-79
2023/05/19 12:48:10;;;;;;;;;;;;;;;;;;5025086;28;19927;-78
2023/05/19 12:50:36;;;;;;;;;;;;;;;;;;5028667;28;19928;-79
2023/05/19 12:53:02;;;;;;;;;;;;;;;;;;5032312;28;19920;-79
2023/05/19 12:55:28;;;;;;;;;;;;;;;;;;5010571;28;19968;-79
2023/05/19 12:57:56;;;;;;;;;;;;;;;;;;5030565;28;19921;-79
2023/05/19 13:00:24;;;;;;;;;;;;;;;;;;5036539;28;19991;-79
2023/05/19 13:02:50;;;;;;;;;;;;;;;;;;5029228;28;19921;-79
2023/05/19 13:05:16;;;;;;;;;;;;;;;;;;5031248;28;19921;-79
2023/05/19 13:07:42;;;;;;;;;;;;;;;;;;5025022;28;19928;-79
2023/05/19 13:10:09;;;;;;;;;;;;;;;;;;5027234;28;19936;-79
2023/05/19 13:12:35;;;;;;;;;;;;;;;;;;5031146;28;19921;-79
2023/05/19 13:15:01;;;;;;;;;;;;;;;;;;5032480;28;19928;-79
2023/05/19 13:17:27;;;;;;;;;;;;;;;;;;5024912;28;20295;-79
2023/05/19 13:19:54;;;;;;;;;;;;;;;;;;5023233;28;19928;-79
2023/05/19 13:22:20;;;;;;;;;;;;;;;;;;5029067;28;19932;-79
2023/05/19 13:24:47;;;;;;;;;;;;;;;;;;5020013;28;19944;-79
2023/05/19 13:27:13;;;;;;;;;;;;;;;;;;5029731;28;19925;-79
2023/05/19 13:29:39;;;;;;;;;;;;;;;;;;5027831;28;19928;-79
2023/05/19 13:32:05;;;;;;;;;;;;;;;;;;5008933;28;20433;-79
2023/05/19 13:34:31;;;;;;;;;;;;;;;;;;5028663;28;19921;-79
2023/05/19 13:36:57;;;;;;;;;;;;;;;;;;5031196;28;19921;-80
2023/05/19 13:39:23;;;;;;;;;;;;;;;;;;5028853;28;19925;-79
2023/05/19 13:41:50;;;;;;;;;;;;;;;;;;5028106;28;20268;-79
2023/05/19 13:44:16;;;;;;;;;;;;;;;;;;5022631;28;19991;-80
2023/05/19 13:46:42;;;;;;;;;;;;;;;;;;5026682;28;19972;-79
2023/05/19 13:49:08;;;;;;;;;;;;;;;;;;5027264;28;19928;-80
2023/05/19 13:51:34;;;;;;;;;;;;;;;;;;5028425;28;19921;-80
2023/05/19 13:54:01;;;;;;;;;;;;;;;;;;5030139;28;19925;-79
2023/05/19 13:56:28;;;;;;;;;;;;;;;;;;5031260;28;19925;-80
2023/05/19 13:58:55;;;;;;;;;;;;;;;;;;5029209;28;19921;-79
2023/05/19 14:01:21;;;;;;;;;;;;;;;;;;5027371;28;19921;-79
2023/05/19 14:03:48;;;;;;;;;;;;;;;;;;5033193;28;19947;-79
2023/05/19 14:06:14;;;;;;;;;;;;;;;;;;5027038;28;19937;-79
2023/05/19 14:08:41;;;;;;;;;;;;;;;;;;5025532;28;19921;-79
2023/05/19 14:11:07;;;;;;;;;;;;;;;;;;5033176;28;19928;-79
2023/05/19 14:13:33;;;;;;;;;;;;;;;;;;5033485;28;19921;-79
2023/05/19 14:15:59;;;;;;;;;;;;;;;;;;5031800;28;20379;-79
2023/05/19 14:18:25;;;;;;;;;;;;;;;;;;5032670;28;19992;-79
2023/05/19 14:20:52;;;;;;;;;;;;;;;;;;5031196;28;19929;-78
2023/05/19 14:23:19;;;;;;;;;;;;;;;;;;5028202;28;19925;-79
2023/05/19 14:25:45;;;;;;;;;;;;;;;;;;5029242;28;19921;-79
2023/05/19 14:28:11;;;;;;;;;;;;;;;;;;5032433;28;20402;-79
2023/05/19 14:30:37;;;;;;;;;;;;;;;;;;5029243;28;20387;-79
2023/05/19 14:33:03;;;;;;;;;;;;;;;;;;5021850;28;19929;-79
2023/05/19 14:35:30;;;;;;;;;;;;;;;;;;5027372;28;20284;-79
2023/05/19 14:37:56;;;;;;;;;;;;;;;;;;5031054;28;19921;-79
2023/05/19 14:40:22;;;;;;;;;;;;;;;;;;5028879;28;19921;-79
2023/05/19 14:42:48;;;;;;;;;;;;;;;;;;5029070;28;19924;-79
2023/05/19 14:45:15;;;;;;;;;;;;;;;;;;5031797;28;19928;-79
2023/05/19 14:47:41;;;;;;;;;;;;;;;;;;5032879;28;19921;-79
2023/05/19 14:50:07;;;;;;;;;;;;;;;;;;5031674;28;19928;-79
2023/05/19 14:52:33;;;;;;;;;;;;;;;;;;5033261;28;19921;-79
2023/05/19 14:54:59;;;;;;;;;;;;;;;;;;5030058;28;19922;-79
2023/05/19 14:57:26;;;;;;;;;;;;;;;;;;5025622;28;19920;-79
2023/05/19 14:59:52;;;;;;;;;;;;;;;;;;5034584;28;19922;-79
2023/05/19 15:02:18;;;;;;;;;;;;;;;;;;5035462;28;19932;-79
2023/05/19 15:04:44;;;;;;;;;;;;;;;;;;5028824;28;19944;-79
2023/05/19 15:07:10;;;;;;;;;;;;;;;;;;5031955;28;19928;-79
2023/05/19 15:09:36;;;;;;;;;;;;;;;;;;5028501;28;19971;-79
2023/05/19 15:12:04;;;;;;;;;;;;;;;;;;5016479;28;19928;-79